sensor_id;sensor_type;location;lat;lon;timestamp;pressure;altitude;pressure_sealevel;temperature;humidity
27729;BME280;15126;42.186;24.340;2023-03-23T00:00:58;99321.50;;;9.98;92.93
27729;BME280;15126;42.186;24.340;2023-03-23T00:03:26;99302.66;;;9.86;92.73
27729;BME280;15126;42.186;24.340;2023-03-23T00:05:54;99320.44;;;9.92;92.74
27729;BME280;15126;42.186;24.340;2023-03-23T00:08:25;99324.78;;;9.93;92.66
27729;BME280;15126;42.186;24.340;2023-03-23T00:10:52;99319.72;;;9.88;92.64
27729;BME280;15126;42.186;24.340;2023-03-23T00:13:23;99320.06;;;9.90;92.78
27729;BME280;15126;42.186;24.340;2023-03-23T00:15:51;99294.19;;;9.70;93.40
27729;BME280;15126;42.186;24.340;2023-03-23T00:18:18;99306.41;;;9.76;94.10
27729;BME280;15126;42.186;24.340;2023-03-23T00:20:48;99313.91;;;9.79;94.49
27729;BME280;15126;42.186;24.340;2023-03-23T00:23:17;99319.56;;;9.75;94.61
27729;BME280;15126;42.186;24.340;2023-03-23T00:25:49;99307.69;;;9.71;94.29
27729;BME280;15126;42.186;24.340;2023-03-23T00:28:19;99307.31;;;9.69;95.00
27729;BME280;15126;42.186;24.340;2023-03-23T00:30:55;99292.75;;;9.62;94.95
27729;BME280;15126;42.186;24.340;2023-03-23T00:33:23;99312.41;;;9.74;94.34
27729;BME280;15126;42.186;24.340;2023-03-23T00:35:51;99309.69;;;9.71;93.70
27729;BME280;15126;42.186;24.340;2023-03-23T00:38:20;99303.03;;;9.65;94.30
27729;BME280;15126;42.186;24.340;2023-03-23T00:40:47;99306.69;;;9.62;94.64
27729;BME280;15126;42.186;24.340;2023-03-23T00:43:14;99270.72;;;9.47;94.33
27729;BME280;15126;42.186;24.340;2023-03-23T00:45:42;99306.22;;;9.63;94.22
27729;BME280;15126;42.186;24.340;2023-03-23T00:48:11;99295.59;;;9.58;94.19
27729;BME280;15126;42.186;24.340;2023-03-23T00:50:38;99302.75;;;9.59;93.89
27729;BME280;15126;42.186;24.340;2023-03-23T00:53:05;99299.16;;;9.58;93.79
27729;BME280;15126;42.186;24.340;2023-03-23T00:55:32;99294.44;;;9.55;93.65
27729;BME280;15126;42.186;24.340;2023-03-23T00:57:59;99292.94;;;9.51;93.89
27729;BME280;15126;42.186;24.340;2023-03-23T01:00:26;99285.13;;;9.42;93.60
27729;BME280;15126;42.186;24.340;2023-03-23T01:02:53;99304.06;;;9.51;93.40
27729;BME280;15126;42.186;24.340;2023-03-23T01:05:21;99301.41;;;9.44;93.45
27729;BME280;15126;42.186;24.340;2023-03-23T01:07:48;99298.66;;;9.40;93.83
27729;BME280;15126;42.186;24.340;2023-03-23T01:10:15;99306.78;;;9.31;93.55
27729;BME280;15126;42.186;24.340;2023-03-23T01:12:44;99304.47;;;9.26;93.75
27729;BME280;15126;42.186;24.340;2023-03-23T01:15:15;99308.81;;;9.27;93.63
27729;BME280;15126;42.186;24.340;2023-03-23T01:17:42;99304.09;;;9.24;93.28
27729;BME280;15126;42.186;24.340;2023-03-23T01:20:10;99295.00;;;9.24;92.61
27729;BME280;15126;42.186;24.340;2023-03-23T01:22:39;99287.22;;;9.12;92.45
27729;BME280;15126;42.186;24.340;2023-03-23T01:25:07;99298.22;;;9.19;92.45
27729;BME280;15126;42.186;24.340;2023-03-23T01:27:34;99302.72;;;9.13;92.56
27729;BME280;15126;42.186;24.340;2023-03-23T01:30:01;99292.13;;;9.04;93.02
27729;BME280;15126;42.186;24.340;2023-03-23T01:32:30;99298.56;;;8.97;93.21
27729;BME280;15126;42.186;24.340;2023-03-23T01:34:57;99294.75;;;8.88;93.71
27729;BME280;15126;42.186;24.340;2023-03-23T01:37:24;99289.97;;;8.88;93.67
27729;BME280;15126;42.186;24.340;2023-03-23T01:39:53;99278.09;;;8.84;93.58
27729;BME280;15126;42.186;24.340;2023-03-23T01:42:22;99286.75;;;8.90;93.20
27729;BME280;15126;42.186;24.340;2023-03-23T01:45:23;99282.88;;;8.84;93.04
27729;BME280;15126;42.186;24.340;2023-03-23T01:47:57;99294.81;;;8.81;93.49
27729;BME280;15126;42.186;24.340;2023-03-23T01:50:26;99294.44;;;8.82;93.53
27729;BME280;15126;42.186;24.340;2023-03-23T01:52:56;99285.09;;;8.69;93.14
27729;BME280;15126;42.186;24.340;2023-03-23T01:55:27;99287.78;;;8.73;92.67
27729;BME280;15126;42.186;24.340;2023-03-23T01:57:55;99297.25;;;8.79;92.24
27729;BME280;15126;42.186;24.340;2023-03-23T02:00:24;99304.44;;;8.76;91.86
27729;BME280;15126;42.186;24.340;2023-03-23T02:02:52;99306.06;;;8.74;92.05
27729;BME280;15126;42.186;24.340;2023-03-23T02:05:25;99291.66;;;8.52;92.70
27729;BME280;15126;42.186;24.340;2023-03-23T02:07:55;99309.03;;;8.60;93.46
27729;BME280;15126;42.186;24.340;2023-03-23T02:10:30;99309.06;;;8.56;94.14
27729;BME280;15126;42.186;24.340;2023-03-23T02:12:57;99309.06;;;8.56;92.90
27729;BME280;15126;42.186;24.340;2023-03-23T02:15:27;99303.28;;;8.44;93.07
27729;BME280;15126;42.186;24.340;2023-03-23T02:18:00;99308.94;;;8.36;93.44
27729;BME280;15126;42.186;24.340;2023-03-23T02:20:43;99305.69;;;8.42;92.87
27729;BME280;15126;42.186;24.340;2023-03-23T02:23:38;99292.38;;;8.26;92.88
27729;BME280;15126;42.186;24.340;2023-03-23T02:26:19;99315.31;;;8.33;92.70
27729;BME280;15126;42.186;24.340;2023-03-23T02:29:10;99317.88;;;8.17;93.29
27729;BME280;15126;42.186;24.340;2023-03-23T02:31:52;99319.81;;;8.20;93.11
27729;BME280;15126;42.186;24.340;2023-03-23T02:34:27;99320.22;;;8.19;93.29
27729;BME280;15126;42.186;24.340;2023-03-23T02:36:59;99314.31;;;8.17;93.80
27729;BME280;15126;42.186;24.340;2023-03-23T02:39:30;99306.81;;;8.10;94.18
27729;BME280;15126;42.186;24.340;2023-03-23T02:42:04;99271.75;;;7.93;93.56
27729;BME280;15126;42.186;24.340;2023-03-23T02:44:33;99296.53;;;8.07;93.80
27729;BME280;15126;42.186;24.340;2023-03-23T02:47:04;99303.34;;;8.03;94.84
27729;BME280;15126;42.186;24.340;2023-03-23T02:49:34;99302.56;;;8.02;95.25
27729;BME280;15126;42.186;24.340;2023-03-23T02:52:07;99281.69;;;7.91;95.69
27729;BME280;15126;42.186;24.340;2023-03-23T02:54:38;99310.16;;;7.98;94.93
27729;BME280;15126;42.186;24.340;2023-03-23T02:57:06;99313.03;;;7.88;95.18
27729;BME280;15126;42.186;24.340;2023-03-23T02:59:33;99310.63;;;7.90;94.76
27729;BME280;15126;42.186;24.340;2023-03-23T03:02:05;99323.66;;;7.96;94.86
27729;BME280;15126;42.186;24.340;2023-03-23T03:04:36;99321.63;;;8.00;94.72
27729;BME280;15126;42.186;24.340;2023-03-23T03:07:26;99317.19;;;8.06;94.94
27729;BME280;15126;42.186;24.340;2023-03-23T03:09:57;99309.69;;;8.03;94.72
27729;BME280;15126;42.186;24.340;2023-03-23T03:12:32;99315.66;;;8.02;94.34
27729;BME280;15126;42.186;24.340;2023-03-23T03:15:08;99306.56;;;8.01;94.38
27729;BME280;15126;42.186;24.340;2023-03-23T03:17:40;99322.44;;;7.97;94.16
27729;BME280;15126;42.186;24.340;2023-03-23T03:20:12;99317.22;;;8.03;93.97
27729;BME280;15126;42.186;24.340;2023-03-23T03:22:41;99301.47;;;7.93;93.81
27729;BME280;15126;42.186;24.340;2023-03-23T03:25:11;99315.63;;;8.05;93.90
27729;BME280;15126;42.186;24.340;2023-03-23T03:27:43;99310.09;;;8.02;93.98
27729;BME280;15126;42.186;24.340;2023-03-23T03:30:14;99312.13;;;7.98;95.13
27729;BME280;15126;42.186;24.340;2023-03-23T03:32:46;99300.56;;;7.65;96.96
27729;BME280;15126;42.186;24.340;2023-03-23T03:35:18;99314.31;;;7.79;98.44
27729;BME280;15126;42.186;24.340;2023-03-23T03:37:45;99317.91;;;7.76;99.41
27729;BME280;15126;42.186;24.340;2023-03-23T03:40:14;99324.25;;;7.77;99.81
27729;BME280;15126;42.186;24.340;2023-03-23T03:42:43;99325.91;;;7.71;99.59
27729;BME280;15126;42.186;24.340;2023-03-23T03:45:12;99327.41;;;7.79;99.52
27729;BME280;15126;42.186;24.340;2023-03-23T03:47:39;99336.78;;;7.92;98.82
27729;BME280;15126;42.186;24.340;2023-03-23T03:50:07;99341.53;;;7.95;98.75
27729;BME280;15126;42.186;24.340;2023-03-23T03:52:35;99337.88;;;8.02;98.61
27729;BME280;15126;42.186;24.340;2023-03-23T03:55:04;99336.66;;;8.06;98.06
27729;BME280;15126;42.186;24.340;2023-03-23T03:57:32;99322.09;;;7.95;98.17
27729;BME280;15126;42.186;24.340;2023-03-23T03:59:59;99332.25;;;8.09;97.73
27729;BME280;15126;42.186;24.340;2023-03-23T04:02:25;99340.94;;;8.11;97.03
27729;BME280;15126;42.186;24.340;2023-03-23T04:04:52;99325.66;;;7.96;94.23
27729;BME280;15126;42.186;24.340;2023-03-23T04:07:19;99334.03;;;7.89;92.90
27729;BME280;15126;42.186;24.340;2023-03-23T04:09:48;99338.09;;;7.80;93.17
27729;BME280;15126;42.186;24.340;2023-03-23T04:12:15;99307.41;;;7.54;93.77
27729;BME280;15126;42.186;24.340;2023-03-23T04:14:42;99344.16;;;7.68;94.31
27729;BME280;15126;42.186;24.340;2023-03-23T04:17:08;99336.69;;;7.58;95.04
27729;BME280;15126;42.186;24.340;2023-03-23T04:19:36;99324.03;;;7.61;94.95
27729;BME280;15126;42.186;24.340;2023-03-23T04:22:04;99335.78;;;7.72;94.88
27729;BME280;15126;42.186;24.340;2023-03-23T04:24:31;99339.78;;;7.71;94.93
27729;BME280;15126;42.186;24.340;2023-03-23T04:27:02;99329.56;;;7.61;95.23
27729;BME280;15126;42.186;24.340;2023-03-23T04:29:29;99345.72;;;7.69;95.32
27729;BME280;15126;42.186;24.340;2023-03-23T04:31:55;99351.69;;;7.68;95.19
27729;BME280;15126;42.186;24.340;2023-03-23T04:34:22;99353.28;;;7.69;95.09
27729;BME280;15126;42.186;24.340;2023-03-23T04:36:49;99345.78;;;7.66;95.16
27729;BME280;15126;42.186;24.340;2023-03-23T04:39:17;99330.34;;;7.61;94.93
27729;BME280;15126;42.186;24.340;2023-03-23T04:41:43;99344.97;;;7.69;94.91
27729;BME280;15126;42.186;24.340;2023-03-23T04:44:12;99352.50;;;7.68;94.61
27729;BME280;15126;42.186;24.340;2023-03-23T04:46:44;99344.59;;;7.63;94.36
27729;BME280;15126;42.186;24.340;2023-03-23T04:49:15;99339.53;;;7.55;94.53
27729;BME280;15126;42.186;24.340;2023-03-23T04:51:46;99345.44;;;7.60;94.79
27729;BME280;15126;42.186;24.340;2023-03-23T04:54:14;99349.41;;;7.56;95.05
27729;BME280;15126;42.186;24.340;2023-03-23T04:56:41;99357.63;;;7.66;95.03
27729;BME280;15126;42.186;24.340;2023-03-23T04:59:08;99366.72;;;7.74;95.11
27729;BME280;15126;42.186;24.340;2023-03-23T05:01:36;99365.56;;;7.71;94.85
27729;BME280;15126;42.186;24.340;2023-03-23T05:04:04;99360.34;;;7.77;94.81
27729;BME280;15126;42.186;24.340;2023-03-23T05:06:31;99354.47;;;7.68;95.60
27729;BME280;15126;42.186;24.340;2023-03-23T05:08:58;99354.38;;;7.78;95.21
27729;BME280;15126;42.186;24.340;2023-03-23T05:11:24;99353.91;;;7.84;94.87
27729;BME280;15126;42.186;24.340;2023-03-23T05:13:52;99346.47;;;7.77;95.99
27729;BME280;15126;42.186;24.340;2023-03-23T05:16:19;99360.97;;;7.92;95.57
27729;BME280;15126;42.186;24.340;2023-03-23T05:18:47;99358.53;;;8.01;94.95
27729;BME280;15126;42.186;24.340;2023-03-23T05:21:14;99372.72;;;8.10;94.80
27729;BME280;15126;42.186;24.340;2023-03-23T05:23:41;99373.03;;;8.15;94.91
27729;BME280;15126;42.186;24.340;2023-03-23T05:26:07;99365.81;;;8.21;94.62
27729;BME280;15126;42.186;24.340;2023-03-23T05:28:34;99376.13;;;8.28;94.42
27729;BME280;15126;42.186;24.340;2023-03-23T05:31:01;99381.19;;;8.36;93.96
27729;BME280;15126;42.186;24.340;2023-03-23T05:33:28;99382.25;;;8.46;93.79
27729;BME280;15126;42.186;24.340;2023-03-23T05:35:56;99382.53;;;8.59;93.96
27729;BME280;15126;42.186;24.340;2023-03-23T05:38:23;99387.16;;;8.69;93.59
27729;BME280;15126;42.186;24.340;2023-03-23T05:40:50;99382.25;;;8.80;93.86
27729;BME280;15126;42.186;24.340;2023-03-23T05:43:17;99384.59;;;8.81;94.34
27729;BME280;15126;42.186;24.340;2023-03-23T05:45:44;99378.84;;;8.95;94.17
27729;BME280;15126;42.186;24.340;2023-03-23T05:48:11;99382.75;;;9.02;94.37
27729;BME280;15126;42.186;24.340;2023-03-23T05:50:38;99386.25;;;9.06;94.49
27729;BME280;15126;42.186;24.340;2023-03-23T05:53:06;99387.31;;;9.15;94.18
27729;BME280;15126;42.186;24.340;2023-03-23T05:55:33;99386.50;;;9.18;92.51
27729;BME280;15126;42.186;24.340;2023-03-23T05:57:59;99384.69;;;9.31;92.82
27729;BME280;15126;42.186;24.340;2023-03-23T06:00:27;99382.13;;;9.44;91.98
27729;BME280;15126;42.186;24.340;2023-03-23T06:02:56;99395.22;;;9.70;90.64
27729;BME280;15126;42.186;24.340;2023-03-23T06:05:23;99367.38;;;9.70;89.17
27729;BME280;15126;42.186;24.340;2023-03-23T06:07:51;99395.03;;;10.04;87.31
27729;BME280;15126;42.186;24.340;2023-03-23T06:10:20;99380.75;;;10.02;87.69
27729;BME280;15126;42.186;24.340;2023-03-23T06:12:47;99392.13;;;10.34;86.91
27729;BME280;15126;42.186;24.340;2023-03-23T06:15:13;99396.63;;;10.48;87.10
27729;BME280;15126;42.186;24.340;2023-03-23T06:17:40;99394.38;;;10.62;87.70
27729;BME280;15126;42.186;24.340;2023-03-23T06:20:08;99406.28;;;10.83;85.28
27729;BME280;15126;42.186;24.340;2023-03-23T06:22:36;99404.78;;;10.98;85.17
27729;BME280;15126;42.186;24.340;2023-03-23T06:25:04;99382.81;;;11.00;85.06
27729;BME280;15126;42.186;24.340;2023-03-23T06:27:33;99389.84;;;11.24;83.18
27729;BME280;15126;42.186;24.340;2023-03-23T06:30:00;99397.75;;;11.61;81.45
27729;BME280;15126;42.186;24.340;2023-03-23T06:32:29;99392.56;;;11.96;81.93
27729;BME280;15126;42.186;24.340;2023-03-23T06:34:57;99403.22;;;12.29;79.85
27729;BME280;15126;42.186;24.340;2023-03-23T06:37:23;99411.50;;;12.49;79.64
27729;BME280;15126;42.186;24.340;2023-03-23T06:39:50;99406.88;;;12.71;77.09
27729;BME280;15126;42.186;24.340;2023-03-23T06:42:18;99414.22;;;12.94;77.24
27729;BME280;15126;42.186;24.340;2023-03-23T06:44:46;99414.25;;;13.06;76.37
27729;BME280;15126;42.186;24.340;2023-03-23T06:47:13;99405.22;;;13.15;76.94
27729;BME280;15126;42.186;24.340;2023-03-23T06:49:40;99406.28;;;13.05;76.00
27729;BME280;15126;42.186;24.340;2023-03-23T06:52:06;99413.09;;;13.33;76.44
27729;BME280;15126;42.186;24.340;2023-03-23T06:54:33;99407.47;;;13.33;75.13
27729;BME280;15126;42.186;24.340;2023-03-23T06:57:00;99414.88;;;13.52;75.32
27729;BME280;15126;42.186;24.340;2023-03-23T06:59:27;99415.44;;;13.59;75.56
27729;BME280;15126;42.186;24.340;2023-03-23T07:01:56;99406.81;;;13.66;74.11
27729;BME280;15126;42.186;24.340;2023-03-23T07:04:23;99413.31;;;13.76;75.33
27729;BME280;15126;42.186;24.340;2023-03-23T07:06:53;99414.75;;;13.81;73.42
27729;BME280;15126;42.186;24.340;2023-03-23T07:09:20;99425.06;;;13.96;73.47
27729;BME280;15126;42.186;24.340;2023-03-23T07:11:46;99420.88;;;14.13;72.45
27729;BME280;15126;42.186;24.340;2023-03-23T07:14:14;99419.75;;;14.23;72.58
27729;BME280;15126;42.186;24.340;2023-03-23T07:16:41;99424.34;;;14.17;72.96
27729;BME280;15126;42.186;24.340;2023-03-23T07:19:10;99400.47;;;14.13;72.31
27729;BME280;15126;42.186;24.340;2023-03-23T07:21:37;99417.16;;;14.16;72.38
27729;BME280;15126;42.186;24.340;2023-03-23T07:24:04;99417.53;;;14.18;72.42
27729;BME280;15126;42.186;24.340;2023-03-23T07:26:31;99415.94;;;14.17;71.77
27729;BME280;15126;42.186;24.340;2023-03-23T07:28:57;99424.25;;;14.08;72.51
27729;BME280;15126;42.186;24.340;2023-03-23T07:31:24;99422.56;;;14.23;72.55
27729;BME280;15126;42.186;24.340;2023-03-23T07:33:51;99415.69;;;14.24;71.75
27729;BME280;15126;42.186;24.340;2023-03-23T07:36:19;99422.66;;;14.32;71.68
27729;BME280;15126;42.186;24.340;2023-03-23T07:38:46;99419.41;;;14.34;71.80
27729;BME280;15126;42.186;24.340;2023-03-23T07:41:13;99417.16;;;14.29;72.63
27729;BME280;15126;42.186;24.340;2023-03-23T07:43:40;99433.31;;;14.38;71.89
27729;BME280;15126;42.186;24.340;2023-03-23T07:46:07;99427.88;;;14.43;71.87
27729;BME280;15126;42.186;24.340;2023-03-23T07:48:34;99427.78;;;14.47;71.97
27729;BME280;15126;42.186;24.340;2023-03-23T07:51:01;99427.81;;;14.34;72.38
27729;BME280;15126;42.186;24.340;2023-03-23T07:53:30;99424.69;;;14.32;72.86
27729;BME280;15126;42.186;24.340;2023-03-23T07:55:57;99425.09;;;14.30;71.92
27729;BME280;15126;42.186;24.340;2023-03-23T07:58:24;99424.22;;;14.34;73.32
27729;BME280;15126;42.186;24.340;2023-03-23T08:00:53;99418.38;;;14.28;73.39
27729;BME280;15126;42.186;24.340;2023-03-23T08:03:23;99409.53;;;14.17;72.96
27729;BME280;15126;42.186;24.340;2023-03-23T08:05:49;99432.97;;;14.36;75.67
27729;BME280;15126;42.186;24.340;2023-03-23T08:08:16;99430.50;;;14.38;74.49
27729;BME280;15126;42.186;24.340;2023-03-23T08:10:45;99433.91;;;14.54;75.46
27729;BME280;15126;42.186;24.340;2023-03-23T08:13:12;99430.00;;;14.52;72.68
27729;BME280;15126;42.186;24.340;2023-03-23T08:15:39;99428.31;;;14.76;72.86
27729;BME280;15126;42.186;24.340;2023-03-23T08:18:07;99436.81;;;14.85;70.97
27729;BME280;15126;42.186;24.340;2023-03-23T08:20:34;99429.63;;;15.06;71.08
27729;BME280;15126;42.186;24.340;2023-03-23T08:23:01;99432.75;;;15.29;71.43
27729;BME280;15126;42.186;24.340;2023-03-23T08:25:29;99431.34;;;15.56;73.58
27729;BME280;15126;42.186;24.340;2023-03-23T08:27:59;99429.50;;;15.62;69.01
27729;BME280;15126;42.186;24.340;2023-03-23T08:30:27;99427.66;;;15.68;66.42
27729;BME280;15126;42.186;24.340;2023-03-23T08:32:56;99416.16;;;15.93;69.50
27729;BME280;15126;42.186;24.340;2023-03-23T08:35:23;99425.91;;;16.10;70.75
27729;BME280;15126;42.186;24.340;2023-03-23T08:37:50;99407.00;;;16.11;67.46
27729;BME280;15126;42.186;24.340;2023-03-23T08:40:20;99416.84;;;16.15;65.51
27729;BME280;15126;42.186;24.340;2023-03-23T08:42:49;99413.75;;;16.22;66.75
27729;BME280;15126;42.186;24.340;2023-03-23T08:45:19;99421.72;;;16.24;66.80
27729;BME280;15126;42.186;24.340;2023-03-23T08:47:46;99412.50;;;16.32;67.68
27729;BME280;15126;42.186;24.340;2023-03-23T08:50:16;99387.81;;;16.45;69.78
27729;BME280;15126;42.186;24.340;2023-03-23T08:52:43;99407.56;;;16.73;60.88
27729;BME280;15126;42.186;24.340;2023-03-23T08:55:10;99406.47;;;16.70;59.37
27729;BME280;15126;42.186;24.340;2023-03-23T08:57:37;99407.84;;;16.84;63.63
27729;BME280;15126;42.186;24.340;2023-03-23T09:00:05;99408.63;;;16.75;62.85
27729;BME280;15126;42.186;24.340;2023-03-23T09:02:43;99403.47;;;16.92;62.86
27729;BME280;15126;42.186;24.340;2023-03-23T09:05:11;99368.25;;;16.87;59.83
27729;BME280;15126;42.186;24.340;2023-03-23T09:07:38;99379.94;;;17.13;59.50
27729;BME280;15126;42.186;24.340;2023-03-23T09:10:06;99387.53;;;17.40;58.50
27729;BME280;15126;42.186;24.340;2023-03-23T09:12:34;99397.97;;;17.66;58.70
27729;BME280;15126;42.186;24.340;2023-03-23T09:15:01;99397.25;;;17.80;54.54
27729;BME280;15126;42.186;24.340;2023-03-23T09:17:30;99398.56;;;17.70;54.52
27729;BME280;15126;42.186;24.340;2023-03-23T09:19:59;99391.41;;;17.60;53.57
27729;BME280;15126;42.186;24.340;2023-03-23T09:22:25;99394.22;;;17.60;52.65
27729;BME280;15126;42.186;24.340;2023-03-23T09:24:53;99384.09;;;17.77;52.97
27729;BME280;15126;42.186;24.340;2023-03-23T09:27:19;99381.84;;;17.91;53.67
27729;BME280;15126;42.186;24.340;2023-03-23T09:29:46;99384.19;;;17.92;52.51
27729;BME280;15126;42.186;24.340;2023-03-23T09:32:14;99386.59;;;18.08;50.91
27729;BME280;15126;42.186;24.340;2023-03-23T09:34:41;99382.81;;;18.11;51.20
27729;BME280;15126;42.186;24.340;2023-03-23T09:37:09;99376.28;;;18.29;54.80
27729;BME280;15126;42.186;24.340;2023-03-23T09:39:38;99376.75;;;18.51;54.25
27729;BME280;15126;42.186;24.340;2023-03-23T09:42:18;99380.59;;;18.77;51.45
27729;BME280;15126;42.186;24.340;2023-03-23T09:44:57;99366.16;;;18.61;46.90
27729;BME280;15126;42.186;24.340;2023-03-23T09:47:33;99371.72;;;18.70;45.89
27729;BME280;15126;42.186;24.340;2023-03-23T09:50:08;99371.63;;;18.64;50.04
27729;BME280;15126;42.186;24.340;2023-03-23T09:52:40;99361.50;;;18.72;49.79
27729;BME280;15126;42.186;24.340;2023-03-23T09:55:13;99372.22;;;18.83;51.54
27729;BME280;15126;42.186;24.340;2023-03-23T09:57:47;99368.91;;;18.46;50.72
27729;BME280;15126;42.186;24.340;2023-03-23T10:00:21;99364.28;;;18.58;47.71
27729;BME280;15126;42.186;24.340;2023-03-23T10:02:55;99370.44;;;18.71;46.99
27729;BME280;15126;42.186;24.340;2023-03-23T10:05:30;99336.72;;;18.67;47.92
27729;BME280;15126;42.186;24.340;2023-03-23T10:08:01;99370.88;;;18.93;48.77
27729;BME280;15126;42.186;24.340;2023-03-23T10:10:38;99368.91;;;18.84;48.34
27729;BME280;15126;42.186;24.340;2023-03-23T10:13:14;99361.81;;;19.03;45.17
27729;BME280;15126;42.186;24.340;2023-03-23T10:15:46;99341.63;;;18.81;45.40
27729;BME280;15126;42.186;24.340;2023-03-23T10:18:17;99358.19;;;19.03;45.28
27729;BME280;15126;42.186;24.340;2023-03-23T10:20:48;99360.94;;;19.12;43.24
27729;BME280;15126;42.186;24.340;2023-03-23T10:23:38;99362.09;;;19.06;42.19
27729;BME280;15126;42.186;24.340;2023-03-23T10:26:18;99353.03;;;19.01;46.88
27729;BME280;15126;42.186;24.340;2023-03-23T10:28:51;99345.25;;;18.96;44.84
27729;BME280;15126;42.186;24.340;2023-03-23T10:31:21;99340.84;;;18.95;45.01
27729;BME280;15126;42.186;24.340;2023-03-23T10:33:52;99350.31;;;19.07;45.73
27729;BME280;15126;42.186;24.340;2023-03-23T10:36:24;99351.38;;;19.10;46.24
27729;BME280;15126;42.186;24.340;2023-03-23T10:39:00;99336.78;;;18.96;45.63
27729;BME280;15126;42.186;24.340;2023-03-23T10:41:28;99346.19;;;19.08;43.71
27729;BME280;15126;42.186;24.340;2023-03-23T10:43:55;99346.09;;;19.17;46.07
27729;BME280;15126;42.186;24.340;2023-03-23T10:46:27;99334.41;;;19.10;44.62
27729;BME280;15126;42.186;24.340;2023-03-23T10:48:58;99333.81;;;19.20;45.96
27729;BME280;15126;42.186;24.340;2023-03-23T10:51:30;99329.84;;;19.27;45.84
27729;BME280;15126;42.186;24.340;2023-03-23T10:54:02;99329.22;;;19.37;45.48
27729;BME280;15126;42.186;24.340;2023-03-23T10:56:36;99333.44;;;19.42;42.43
27729;BME280;15126;42.186;24.340;2023-03-23T10:59:12;99320.75;;;19.37;43.74
27729;BME280;15126;42.186;24.340;2023-03-23T11:01:43;99325.72;;;19.28;43.97
27729;BME280;15126;42.186;24.340;2023-03-23T11:04:13;99329.13;;;19.32;41.99
27729;BME280;15126;42.186;24.340;2023-03-23T11:06:44;99327.41;;;19.05;43.01
27729;BME280;15126;42.186;24.340;2023-03-23T11:09:14;99325.06;;;19.18;43.09
27729;BME280;15126;42.186;24.340;2023-03-23T11:11:47;99328.44;;;19.37;44.42
27729;BME280;15126;42.186;24.340;2023-03-23T11:14:17;99315.88;;;19.38;43.11
27729;BME280;15126;42.186;24.340;2023-03-23T11:16:49;99327.19;;;19.38;44.49
27729;BME280;15126;42.186;24.340;2023-03-23T11:19:23;99320.53;;;19.41;45.27
27729;BME280;15126;42.186;24.340;2023-03-23T11:21:51;99313.94;;;19.29;44.21
27729;BME280;15126;42.186;24.340;2023-03-23T11:24:22;99311.00;;;19.24;44.70
27729;BME280;15126;42.186;24.340;2023-03-23T11:26:50;99321.81;;;19.11;43.54
27729;BME280;15126;42.186;24.340;2023-03-23T11:29:20;99319.41;;;19.18;42.95
27729;BME280;15126;42.186;24.340;2023-03-23T11:31:50;99322.50;;;19.06;44.80
27729;BME280;15126;42.186;24.340;2023-03-23T11:34:19;99314.84;;;18.91;44.26
27729;BME280;15126;42.186;24.340;2023-03-23T11:36:49;99313.56;;;19.07;44.92
27729;BME280;15126;42.186;24.340;2023-03-23T11:39:24;99311.31;;;18.96;44.71
27729;BME280;15126;42.186;24.340;2023-03-23T11:41:51;99308.69;;;18.93;44.76
27729;BME280;15126;42.186;24.340;2023-03-23T11:44:20;99310.34;;;18.85;42.96
27729;BME280;15126;42.186;24.340;2023-03-23T11:46:55;99304.50;;;18.88;44.39
27729;BME280;15126;42.186;24.340;2023-03-23T11:49:32;99295.94;;;18.83;43.89
27729;BME280;15126;42.186;24.340;2023-03-23T11:52:05;99300.09;;;18.87;43.97
27729;BME280;15126;42.186;24.340;2023-03-23T11:54:42;99302.16;;;18.72;44.91
27729;BME280;15126;42.186;24.340;2023-03-23T11:57:11;99291.84;;;18.69;46.79
27729;BME280;15126;42.186;24.340;2023-03-23T11:59:39;99292.69;;;18.75;46.86
27729;BME280;15126;42.186;24.340;2023-03-23T12:02:26;99290.06;;;18.86;44.83
27729;BME280;15126;42.186;24.340;2023-03-23T12:05:26;99289.69;;;18.93;44.70
27729;BME280;15126;42.186;24.340;2023-03-23T12:08:02;99294.06;;;18.94;44.78
27729;BME280;15126;42.186;24.340;2023-03-23T12:10:41;99289.97;;;18.95;47.03
27729;BME280;15126;42.186;24.340;2023-03-23T12:13:26;99260.34;;;18.76;47.05
27729;BME280;15126;42.186;24.340;2023-03-23T12:16:04;99293.41;;;18.99;45.19
27729;BME280;15126;42.186;24.340;2023-03-23T12:18:47;99284.22;;;18.90;45.62
27729;BME280;15126;42.186;24.340;2023-03-23T12:21:23;99290.75;;;18.81;45.23
27729;BME280;15126;42.186;24.340;2023-03-23T12:23:57;99278.84;;;18.92;43.90
27729;BME280;15126;42.186;24.340;2023-03-23T12:26:32;99272.72;;;18.93;45.56
27729;BME280;15126;42.186;24.340;2023-03-23T12:32:06;99287.44;;;18.97;45.57
27729;BME280;15126;42.186;24.340;2023-03-23T12:34:40;99285.38;;;18.83;45.75
27729;BME280;15126;42.186;24.340;2023-03-23T12:37:21;99282.66;;;19.03;47.16
27729;BME280;15126;42.186;24.340;2023-03-23T12:40:09;99273.59;;;18.99;45.47
27729;BME280;15126;42.186;24.340;2023-03-23T12:42:50;99261.44;;;18.93;45.36
27729;BME280;15126;42.186;24.340;2023-03-23T12:45:25;99284.31;;;18.95;44.46
27729;BME280;15126;42.186;24.340;2023-03-23T12:47:57;99268.53;;;19.03;44.83
27729;BME280;15126;42.186;24.340;2023-03-23T12:50:30;99263.97;;;18.91;45.28
27729;BME280;15126;42.186;24.340;2023-03-23T12:53:04;99262.41;;;18.90;43.76
27729;BME280;15126;42.186;24.340;2023-03-23T12:55:37;99265.78;;;18.94;43.75
27729;BME280;15126;42.186;24.340;2023-03-23T12:58:10;99255.63;;;19.02;43.94
27729;BME280;15126;42.186;24.340;2023-03-23T13:00:54;99262.16;;;19.09;45.98
27729;BME280;15126;42.186;24.340;2023-03-23T13:03:27;99240.47;;;18.85;45.03
27729;BME280;15126;42.186;24.340;2023-03-23T13:06:03;99262.25;;;19.14;45.89
27729;BME280;15126;42.186;24.340;2023-03-23T13:08:34;99247.34;;;19.14;44.13
27729;BME280;15126;42.186;24.340;2023-03-23T13:11:04;99252.81;;;19.02;45.74
27729;BME280;15126;42.186;24.340;2023-03-23T13:13:45;99255.38;;;19.00;45.18